Time;durP1;ratioP1;P1;durP2;ratioP2;P2;SDS_P1;SDS_P2;PMS_P1;PMS_P2;Temp;Humidity;BMP_temperature;BMP_pressure;BME280_temperature;BME280_humidity;BME280_pressure;Samples;Min_cycle;Max_cycle;Signal;HPM_P1;HPM_P2
2021/07/12 06:04:28;;;;;;;10.25;9.25;;;;;;;;;;10510939;27;20496;-88
2021/07/12 06:09:38;;;;;;;9.60;8.70;;;;;;;;;;10539033;28;20046;-89
2021/07/12 06:14:39;;;;;;;11.38;8.90;;;;;;;;;;10539585;28;20020;-88
2021/07/12 06:19:40;;;;;;;10.50;9.50;;;;;;;;;;10514769;28;20033;-89
2021/07/12 06:24:41;;;;;;;9.45;8.65;;;;;;;;;;10499864;28;20028;-88
2021/07/12 06:29:42;;;;;;;9.00;8.20;;;;;;;;;;10508287;28;20039;-84
2021/07/12 06:34:43;;;;;;;9.55;8.05;;;;;;;;;;10501280;28;20100;-88
2021/07/12 06:39:44;;;;;;;7.20;6.60;;;;;;;;;;10499965;28;20461;-88
2021/07/12 06:44:45;;;;;;;6.60;6.00;;;;;;;;;;10500885;28;20029;-88
2021/07/12 06:49:45;;;;;;;7.03;6.28;;;;;;;;;;10501454;28;20056;-88
2021/07/12 06:54:47;;;;;;;9.18;8.38;;;;;;;;;;10498940;28;20021;-89
2021/07/12 06:59:50;;;;;;;4.53;4.18;;;;;;;;;;10500998;28;20158;-87
2021/07/12 07:04:51;;;;;;;5.78;5.20;;;;;;;;;;10485337;28;20035;-87
2021/07/12 07:09:52;;;;;;;8.95;6.65;;;;;;;;;;10474403;28;20044;-88
2021/07/12 07:14:53;;;;;;;6.15;5.63;;;;;;;;;;10472081;28;20020;-88
2021/07/12 07:19:54;;;;;;;6.53;5.93;;;;;;;;;;10471870;28;20100;-87
2021/07/12 07:24:55;;;;;;;6.93;6.20;;;;;;;;;;10480922;28;20025;-87
2021/07/12 07:29:56;;;;;;;6.03;5.47;;;;;;;;;;10493065;28;20032;-87
2021/07/12 07:34:57;;;;;;;6.15;5.60;;;;;;;;;;10475003;28;20032;-87
2021/07/12 07:39:58;;;;;;;5.60;5.00;;;;;;;;;;10471982;28;20472;-87
2021/07/12 07:45:00;;;;;;;7.18;6.57;;;;;;;;;;10470390;28;20028;-88
2021/07/12 07:50:01;;;;;;;7.53;6.82;;;;;;;;;;10471023;28;20040;-87
2021/07/12 07:55:05;;;;;;;5.95;5.32;;;;;;;;;;10470454;28;20025;-87
2021/07/12 08:00:09;;;;;;;7.32;5.72;;;;;;;;;;10474073;28;20033;-87
2021/07/12 08:05:10;;;;;;;5.93;5.38;;;;;;;;;;10475542;28;20025;-87
2021/07/12 08:10:12;;;;;;;6.75;5.55;;;;;;;;;;10473558;28;20036;-86
2021/07/12 08:15:14;;;;;;;5.50;4.88;;;;;;;;;;10479648;28;20036;-87
2021/07/12 08:20:16;;;;;;;5.65;5.10;;;;;;;;;;10478541;28;20550;-87
2021/07/12 08:25:17;;;;;;;7.75;4.90;;;;;;;;;;10475652;28;20071;-86
2021/07/12 08:30:18;;;;;;;6.32;5.57;;;;;;;;;;10475443;28;20036;-87
2021/07/12 08:35:19;;;;;;;6.75;6.15;;;;;;;;;;10474844;28;20017;-87
2021/07/12 08:40:23;;;;;;;5.93;5.32;;;;;;;;;;10473563;28;20032;-87
2021/07/12 08:45:24;;;;;;;6.25;5.75;;;;;;;;;;10473353;28;20040;-87
2021/07/12 08:50:26;;;;;;;5.85;5.20;;;;;;;;;;10474069;28;20032;-87
2021/07/12 08:55:27;;;;;;;5.10;4.32;;;;;;;;;;10471492;28;20045;-88
2021/07/12 09:00:40;;;;;;;5.20;4.70;;;;;;;;;;10470366;28;20041;-84
2021/07/12 09:06:00;;;;;;;7.47;6.10;;;;;;;;;;10467091;28;20025;-83
2021/07/12 09:11:05;;;;;;;5.57;4.78;;;;;;;;;;10471149;28;20024;-82
2021/07/12 09:16:25;;;;;;;4.75;4.35;;;;;;;;;;10478407;28;20059;-84
2021/07/12 09:21:29;;;;;;;5.38;4.75;;;;;;;;;;10472961;28;20074;-83
2021/07/12 09:26:30;;;;;;;5.63;5.03;;;;;;;;;;10471567;28;20033;-83
2021/07/12 09:31:36;;;;;;;5.05;4.63;;;;;;;;;;10472854;28;20021;-84
2021/07/12 09:36:37;;;;;;;4.38;3.97;;;;;;;;;;10472875;28;20048;-83
2021/07/12 09:41:38;;;;;;;5.57;4.45;;;;;;;;;;10472013;28;20033;-84
2021/07/12 09:46:39;;;;;;;5.10;4.43;;;;;;;;;;10472189;28;20123;-83
2021/07/12 09:51:40;;;;;;;6.55;5.30;;;;;;;;;;10482641;28;20036;-85
2021/07/12 09:56:41;;;;;;;7.30;5.35;;;;;;;;;;10477081;28;20025;-84
2021/07/12 10:01:46;;;;;;;5.30;4.88;;;;;;;;;;10479156;28;20187;-83
2021/07/12 10:06:48;;;;;;;6.00;5.50;;;;;;;;;;10478206;28;20029;-83
2021/07/12 10:11:50;;;;;;;6.20;5.60;;;;;;;;;;10472297;28;20072;-82
2021/07/12 10:16:53;;;;;;;6.90;5.57;;;;;;;;;;10477714;28;20025;-84
2021/07/12 10:21:54;;;;;;;5.35;4.85;;;;;;;;;;10479165;28;20033;-83
2021/07/12 10:26:57;;;;;;;5.18;4.78;;;;;;;;;;10471687;28;20036;-82
2021/07/12 10:32:02;;;;;;;5.43;4.93;;;;;;;;;;10475167;28;20213;-83
2021/07/12 10:37:05;;;;;;;6.65;6.05;;;;;;;;;;10473403;28;20021;-82
2021/07/12 10:42:07;;;;;;;5.50;4.93;;;;;;;;;;10478005;28;20036;-83
2021/07/12 10:47:28;;;;;;;5.40;4.90;;;;;;;;;;10480735;28;20433;-83
2021/07/12 10:52:59;;;;;;;5.55;5.05;;;;;;;;;;10476729;28;20036;-82
2021/07/12 10:58:18;;;;;;;5.72;4.35;;;;;;;;;;10455926;28;20033;-85
2021/07/12 11:03:38;;;;;;;8.63;4.72;;;;;;;;;;10473261;28;20481;-83
2021/07/12 11:08:58;;;;;;;4.63;3.95;;;;;;;;;;10475380;28;20095;-83
2021/07/12 11:14:09;;;;;;;4.60;3.92;;;;;;;;;;10471311;28;20508;-83
2021/07/12 11:19:32;;;;;;;4.43;4.03;;;;;;;;;;10472563;28;20025;-83
2021/07/12 11:24:34;;;;;;;7.22;4.68;;;;;;;;;;10539836;28;20074;-83
2021/07/12 11:29:36;;;;;;;4.25;3.88;;;;;;;;;;10540477;28;20031;-83
2021/07/12 11:34:46;;;;;;;6.80;5.13;;;;;;;;;;10537936;28;20032;-84
2021/07/12 11:39:52;;;;;;;6.88;6.22;;;;;;;;;;10534920;28;20070;-84
2021/07/12 11:44:56;;;;;;;5.03;3.40;;;;;;;;;;10537582;28;20036;-83
2021/07/12 11:50:14;;;;;;;5.00;4.60;;;;;;;;;;10535598;28;20081;-83
2021/07/12 11:55:20;;;;;;;4.10;3.80;;;;;;;;;;10535534;28;20051;-83
2021/07/12 12:00:26;;;;;;;4.35;3.80;;;;;;;;;;10554690;28;20036;-83
2021/07/12 12:05:28;;;;;;;6.28;5.78;;;;;;;;;;10537121;28;20494;-84
2021/07/12 12:10:40;;;;;;;4.05;3.70;;;;;;;;;;10540593;28;20036;-85
2021/07/12 12:15:42;;;;;;;3.90;3.60;;;;;;;;;;10562213;28;20073;-84
2021/07/12 12:21:06;;;;;;;3.85;3.47;;;;;;;;;;10535519;28;20461;-84
2021/07/12 12:26:09;;;;;;;4.63;3.67;;;;;;;;;;10534939;28;20060;-85
2021/07/12 12:31:26;;;;;;;4.22;3.92;;;;;;;;;;10534671;28;20562;-84
2021/07/12 12:36:29;;;;;;;4.20;3.90;;;;;;;;;;10535085;28;20016;-84
2021/07/12 12:41:31;;;;;;;4.20;3.80;;;;;;;;;;10535190;28;20093;-83
2021/07/12 12:46:34;;;;;;;4.40;4.07;;;;;;;;;;10534516;28;20127;-84
2021/07/12 12:51:35;;;;;;;4.70;4.30;;;;;;;;;;10534513;28;20039;-83
2021/07/12 12:56:37;;;;;;;4.75;3.80;;;;;;;;;;10535567;28;20066;-84
2021/07/12 13:01:40;;;;;;;4.88;4.20;;;;;;;;;;10534296;28;20131;-84
2021/07/12 13:06:55;;;;;;;4.90;3.70;;;;;;;;;;10539704;28;20027;-84
2021/07/12 13:12:04;;;;;;;5.97;4.55;;;;;;;;;;10530512;28;20024;-86
2021/07/12 13:17:09;;;;;;;4.30;3.90;;;;;;;;;;10529801;28;20031;-84
2021/07/12 13:22:48;;;;;;;6.55;4.78;;;;;;;;;;10531917;28;20024;-84
2021/07/12 13:28:12;;;;;;;3.80;3.50;;;;;;;;;;10538084;28;20028;-83
2021/07/12 13:33:14;;;;;;;4.43;3.85;;;;;;;;;;10530736;28;20023;-83
2021/07/12 13:38:16;;;;;;;5.05;3.72;;;;;;;;;;10530426;28;20341;-82
2021/07/12 13:43:17;;;;;;;3.92;3.53;;;;;;;;;;10547429;28;20076;-83
2021/07/12 13:48:18;;;;;;;6.53;5.93;;;;;;;;;;10530195;28;20541;-84
2021/07/12 13:53:19;;;;;;;6.72;3.75;;;;;;;;;;10529504;28;20077;-84
2021/07/12 13:58:21;;;;;;;4.60;4.20;;;;;;;;;;10529670;28;20055;-83
2021/07/12 14:03:24;;;;;;;4.10;3.70;;;;;;;;;;10546392;28;20068;-84
2021/07/12 14:08:25;;;;;;;3.78;3.40;;;;;;;;;;10528867;28;20053;-82
2021/07/12 14:13:26;;;;;;;4.57;3.85;;;;;;;;;;10532723;28;20108;-83
2021/07/12 14:18:28;;;;;;;4.95;4.47;;;;;;;;;;10556256;28;20020;-83
2021/07/12 14:23:29;;;;;;;5.03;3.55;;;;;;;;;;10538199;28;20054;-84
2021/07/12 14:28:30;;;;;;;4.22;3.30;;;;;;;;;;10536690;28;20063;-84
2021/07/12 14:33:32;;;;;;;4.05;3.40;;;;;;;;;;10545537;28;20028;-84
2021/07/12 14:38:34;;;;;;;4.43;3.00;;;;;;;;;;10539809;28;20385;-82
2021/07/12 14:43:36;;;;;;;3.30;3.00;;;;;;;;;;10538059;28;20055;-83
2021/07/12 14:48:38;;;;;;;5.07;3.40;;;;;;;;;;10537267;28;20024;-83
2021/07/12 14:53:40;;;;;;;3.20;2.88;;;;;;;;;;10537952;28;20082;-82
2021/07/12 14:58:45;;;;;;;3.08;2.65;;;;;;;;;;10546357;28;20194;-84
2021/07/12 15:03:49;;;;;;;3.97;3.55;;;;;;;;;;10530021;23;20502;-86
2021/07/12 15:08:51;;;;;;;4.15;2.83;;;;;;;;;;10542159;28;20493;-86
2021/07/12 15:13:52;;;;;;;3.40;3.10;;;;;;;;;;10584208;28;20050;-83
2021/07/12 15:18:53;;;;;;;3.30;3.00;;;;;;;;;;10578633;28;20051;-83
2021/07/12 15:23:54;;;;;;;3.72;3.30;;;;;;;;;;10594584;28;20038;-84
2021/07/12 15:28:55;;;;;;;4.03;3.63;;;;;;;;;;10577671;28;20023;-83
2021/07/12 15:33:56;;;;;;;3.20;2.90;;;;;;;;;;10578124;28;20478;-83
2021/07/12 15:38:57;;;;;;;4.03;3.20;;;;;;;;;;10577634;28;20132;-82
2021/07/12 15:43:58;;;;;;;3.75;3.45;;;;;;;;;;10605430;28;20225;-83
2021/07/12 15:48:59;;;;;;;4.68;2.90;;;;;;;;;;10577940;28;20015;-84
2021/07/12 15:54:01;;;;;;;3.40;2.63;;;;;;;;;;10579194;28;20032;-82
2021/07/12 15:59:01;;;;;;;2.80;2.60;;;;;;;;;;10583872;28;20028;-85
2021/07/12 16:04:03;;;;;;;3.70;2.70;;;;;;;;;;10589655;28;20141;-84
2021/07/12 16:09:05;;;;;;;2.70;2.50;;;;;;;;;;10616648;28;20016;-81
2021/07/12 16:14:11;;;;;;;3.17;2.67;;;;;;;;;;10617316;28;20040;-81
2021/07/12 16:19:56;;;;;;;3.03;2.50;;;;;;;;;;10613085;28;20043;-88
2021/07/12 16:25:08;;;;;;;2.90;2.53;;;;;;;;;;10583283;28;20126;-87
2021/07/12 16:46:51;;;;;;;3.55;1.95;;;;;;;;;;10603423;28;20043;-90
2021/07/12 16:52:30;;;;;;;2.63;2.42;;;;;;;;;;10596745;28;20111;-88
2021/07/12 17:20:40;;;;;;;3.00;2.22;;;;;;;;;;10597527;28;20032;-89
2021/07/12 17:37:20;;;;;;;2.50;2.30;;;;;;;;;;10596108;28;20024;-89
2021/07/12 18:05:33;;;;;;;2.75;2.40;;;;;;;;;;10508561;28;20029;-86
2021/07/12 18:16:38;;;;;;;3.03;2.70;;;;;;;;;;10600995;28;20051;-87
2021/07/12 18:32:56;;;;;;;;;;;;;;;;;;10592002;28;20110;-86
2021/07/12 19:12:21;;;;;;;2.78;2.58;;;;;;;;;;10606169;28;20507;-86
2021/07/12 19:34:58;;;;;;;3.25;2.72;;;;;;;;;;10554278;28;19920;-85
2021/07/12 19:40:28;;;;;;;3.75;2.88;;;;;;;;;;10468134;28;20033;-89
2021/07/12 19:51:28;;;;;;;2.50;2.30;;;;;;;;;;10507421;28;20029;-86
2021/07/12 20:02:36;;;;;;;3.30;3.00;;;;;;;;;;10507911;28;20025;-86
